Time;durP1;ratioP1;P1;durP2;ratioP2;P2;SDS_P1;SDS_P2;PMS_P1;PMS_P2;Temp;Humidity;BMP_temperature;BMP_pressure;BME280_temperature;BME280_humidity;BME280_pressure;Samples;Min_cycle;Max_cycle;Signal;HPM_P1;HPM_P2
2022/01/22 00:02:10;;;;;;;9.70;4.27;;;;;;;;;;5038305;28;20315;-78
2022/01/22 00:04:36;;;;;;;20.10;5.77;;;;;;;;;;5041206;28;20560;-78
2022/01/22 00:07:04;;;;;;;13.50;5.53;;;;;;;;;;5064819;28;20044;-79
2022/01/22 00:09:36;;;;;;;19.30;6.00;;;;;;;;;;5035476;28;20424;-79
2022/01/22 00:12:07;;;;;;;13.25;5.50;;;;;;;;;;5038148;28;20338;-78
2022/01/22 00:14:34;;;;;;;20.07;5.70;;;;;;;;;;5040294;28;20038;-77
2022/01/22 00:17:00;;;;;;;15.13;5.30;;;;;;;;;;5040738;28;20021;-79
2022/01/22 00:19:27;;;;;;;11.20;4.90;;;;;;;;;;5038968;28;20056;-78
2022/01/22 00:21:53;;;;;;;11.60;5.90;;;;;;;;;;5030894;28;20025;-79
2022/01/22 00:24:19;;;;;;;15.73;5.43;;;;;;;;;;5030404;28;20025;-79
2022/01/22 00:26:46;;;;;;;11.73;4.97;;;;;;;;;;5032195;28;20061;-79
2022/01/22 00:29:12;;;;;;;25.00;6.40;;;;;;;;;;5037669;28;20076;-78
2022/01/22 00:31:39;;;;;;;19.13;5.50;;;;;;;;;;5051484;28;20121;-79
2022/01/22 00:34:09;;;;;;;14.93;7.13;;;;;;;;;;5050795;28;20037;-79
2022/01/22 00:36:35;;;;;;;11.70;5.90;;;;;;;;;;5066048;28;20029;-79
2022/01/22 00:39:02;;;;;;;25.07;6.43;;;;;;;;;;5033704;28;20073;-78
2022/01/22 00:41:28;;;;;;;10.43;6.07;;;;;;;;;;5032532;28;20409;-78
2022/01/22 00:43:54;;;;;;;15.37;6.97;;;;;;;;;;5039285;28;20029;-78
2022/01/22 00:46:20;;;;;;;18.60;6.43;;;;;;;;;;5039856;28;20033;-80
2022/01/22 00:48:46;;;;;;;17.93;6.30;;;;;;;;;;5039731;28;20030;-77
2022/01/22 00:51:12;;;;;;;9.80;5.47;;;;;;;;;;5046772;28;20049;-81
2022/01/22 00:53:38;;;;;;;22.60;6.47;;;;;;;;;;5038349;28;20034;-79
2022/01/22 00:56:04;;;;;;;16.80;6.83;;;;;;;;;;5039211;28;20110;-78
2022/01/22 00:58:30;;;;;;;11.60;6.33;;;;;;;;;;5036408;28;20037;-79
2022/01/22 01:00:56;;;;;;;13.87;6.60;;;;;;;;;;5031485;28;20028;-78
2022/01/22 01:03:22;;;;;;;16.43;6.83;;;;;;;;;;5025516;28;20040;-77
2022/01/22 01:05:49;;;;;;;19.53;7.40;;;;;;;;;;5037700;28;20123;-78
2022/01/22 01:08:15;;;;;;;18.87;7.80;;;;;;;;;;5029115;28;20096;-79
2022/01/22 01:10:41;;;;;;;21.57;6.80;;;;;;;;;;5047399;28;20040;-78
2022/01/22 01:13:07;;;;;;;16.30;7.50;;;;;;;;;;5037206;28;20025;-78
2022/01/22 01:15:56;;;;;;;18.33;8.40;;;;;;;;;;5040400;28;20033;-80
2022/01/22 01:32:12;;;;;;;24.87;10.03;;;;;;;;;;5031740;28;20048;-79
2022/01/22 01:34:42;;;;;;;22.83;9.57;;;;;;;;;;5037434;28;20029;-78
2022/01/22 01:37:08;;;;;;;21.97;10.73;;;;;;;;;;5029283;28;20026;-78
2022/01/22 01:39:38;;;;;;;32.13;10.27;;;;;;;;;;5037451;28;20113;-77
2022/01/22 01:42:09;;;;;;;28.47;10.83;;;;;;;;;;5062935;28;20026;-77
2022/01/22 01:44:35;;;;;;;21.83;11.63;;;;;;;;;;5036891;28;20028;-79
2022/01/22 01:47:03;;;;;;;31.17;13.10;;;;;;;;;;5031988;28;20307;-77
2022/01/22 01:49:29;;;;;;;26.30;11.30;;;;;;;;;;5032799;28;20604;-79
2022/01/22 01:51:58;;;;;;;30.10;11.93;;;;;;;;;;5031640;28;20036;-79
2022/01/22 01:59:39;;;;;;;22.57;11.40;;;;;;;;;;5032446;28;20286;-79
2022/01/22 02:02:07;;;;;;;28.73;13.60;;;;;;;;;;5030915;28;20311;-79
2022/01/22 02:04:33;;;;;;;25.20;12.33;;;;;;;;;;5038656;28;20718;-76
2022/01/22 02:07:01;;;;;;;28.43;13.70;;;;;;;;;;5030293;28;20743;-79
2022/01/22 02:09:27;;;;;;;30.33;12.30;;;;;;;;;;5044893;28;20284;-79
2022/01/22 02:12:12;;;;;;;18.67;11.40;;;;;;;;;;5046120;28;20295;-77
2022/01/22 02:25:23;;;;;;;32.73;12.73;;;;;;;;;;5031961;28;20578;-79
2022/01/22 02:27:49;;;;;;;25.20;11.97;;;;;;;;;;5037458;28;20337;-79
2022/01/22 02:30:21;;;;;;;30.60;12.80;;;;;;;;;;5030357;28;20345;-76
2022/01/22 02:35:28;;;;;;;29.73;12.37;;;;;;;;;;5026458;28;20311;-79
2022/01/22 02:38:03;;;;;;;21.93;12.07;;;;;;;;;;5027309;28;20043;-79
2022/01/22 02:40:35;;;;;;;29.03;13.37;;;;;;;;;;5037400;28;20319;-80
2022/01/22 02:43:01;;;;;;;30.35;14.38;;;;;;;;;;5037375;28;20076;-79
2022/01/22 02:45:27;;;;;;;26.30;13.37;;;;;;;;;;5029642;28;20480;-80
2022/01/22 02:47:54;;;;;;;28.93;14.57;;;;;;;;;;5031093;28;20033;-79
2022/01/22 02:50:20;;;;;;;37.20;13.67;;;;;;;;;;5037509;28;20422;-79
2022/01/22 02:52:46;;;;;;;32.93;14.57;;;;;;;;;;5031439;28;20282;-79
2022/01/22 02:55:13;;;;;;;36.20;15.27;;;;;;;;;;5028319;28;20750;-79
2022/01/22 02:57:42;;;;;;;34.70;15.43;;;;;;;;;;5041433;28;20289;-80
2022/01/22 03:00:11;;;;;;;27.83;14.17;;;;;;;;;;5038638;28;20020;-78
2022/01/22 03:02:37;;;;;;;38.67;14.30;;;;;;;;;;5036566;28;21507;-79
2022/01/22 03:05:04;;;;;;;28.07;13.63;;;;;;;;;;5043433;28;20021;-79
2022/01/22 03:07:30;;;;;;;28.67;14.40;;;;;;;;;;5034823;28;20288;-79
2022/01/22 03:10:01;;;;;;;41.67;15.80;;;;;;;;;;5061152;28;20736;-79
2022/01/22 03:27:59;;;;;;;28.80;14.37;;;;;;;;;;5031822;28;20048;-78
2022/01/22 03:30:28;;;;;;;36.40;15.50;;;;;;;;;;5040426;28;20034;-77
2022/01/22 03:32:56;;;;;;;40.53;17.00;;;;;;;;;;5041405;28;20037;-78
2022/01/22 03:35:27;;;;;;;29.50;14.93;;;;;;;;;;5030178;28;20280;-79
2022/01/22 03:37:55;;;;;;;42.60;16.10;;;;;;;;;;5035133;28;20036;-79
2022/01/22 03:40:25;;;;;;;30.53;14.30;;;;;;;;;;5049385;28;20037;-77
2022/01/22 03:42:51;;;;;;;43.37;16.23;;;;;;;;;;5035449;28;20514;-78
2022/01/22 03:45:20;;;;;;;44.10;16.87;;;;;;;;;;5040864;28;20728;-78
2022/01/22 03:47:49;;;;;;;33.83;15.23;;;;;;;;;;5040842;28;20656;-78
2022/01/22 03:50:18;;;;;;;38.70;15.03;;;;;;;;;;5030894;28;20026;-79
2022/01/22 03:52:44;;;;;;;31.77;14.90;;;;;;;;;;5036218;28;20291;-78
2022/01/22 03:55:20;;;;;;;28.57;13.13;;;;;;;;;;5029909;28;20116;-78
2022/01/22 03:57:46;;;;;;;39.47;14.90;;;;;;;;;;5031030;28;20362;-79
2022/01/22 04:00:12;;;;;;;28.33;14.17;;;;;;;;;;5039345;28;20287;-79
2022/01/22 04:05:09;;;;;;;30.63;14.47;;;;;;;;;;5028692;28;20085;-79
2022/01/22 04:10:23;;;;;;;26.23;13.33;;;;;;;;;;5026181;28;20350;-77
2022/01/22 04:13:04;;;;;;;33.90;14.57;;;;;;;;;;5039740;28;20367;-79
2022/01/22 04:15:33;;;;;;;32.97;14.33;;;;;;;;;;5041743;28;20362;-79
2022/01/22 04:28:44;;;;;;;36.40;13.90;;;;;;;;;;5031822;28;20339;-79
2022/01/22 04:31:10;;;;;;;37.77;15.23;;;;;;;;;;5040895;28;20285;-79
2022/01/22 04:33:36;;;;;;;32.33;13.87;;;;;;;;;;5029753;28;20489;-78
2022/01/22 04:36:03;;;;;;;32.00;14.43;;;;;;;;;;5038433;28;20026;-78
2022/01/22 04:38:29;;;;;;;37.57;16.43;;;;;;;;;;5032277;28;20112;-78
2022/01/22 04:40:55;;;;;;;31.37;13.43;;;;;;;;;;5036046;28;21694;-78
2022/01/22 04:43:21;;;;;;;24.67;11.63;;;;;;;;;;5036559;28;20091;-77
2022/01/22 04:56:46;;;;;;;27.47;12.53;;;;;;;;;;5034540;28;20052;-79
2022/01/22 04:59:12;;;;;;;26.27;12.90;;;;;;;;;;5027339;28;20052;-79
2022/01/22 05:01:38;;;;;;;23.20;12.47;;;;;;;;;;5038838;28;20091;-78
2022/01/22 05:04:04;;;;;;;28.53;12.63;;;;;;;;;;5037514;28;20454;-79
2022/01/22 05:06:30;;;;;;;30.70;15.33;;;;;;;;;;5032692;28;20044;-79
2022/01/22 05:08:57;;;;;;;29.67;13.93;;;;;;;;;;5032201;28;20041;-78
2022/01/22 05:11:24;;;;;;;33.30;14.67;;;;;;;;;;5032128;28;20120;-79
2022/01/22 05:13:53;;;;;;;33.00;13.97;;;;;;;;;;5037900;28;20124;-79
2022/01/22 05:16:20;;;;;;;24.27;13.27;;;;;;;;;;5037857;28;20096;-78
2022/01/22 05:18:58;;;;;;;25.10;12.87;;;;;;;;;;5040942;28;20107;-79
2022/01/22 05:21:26;;;;;;;27.63;13.97;;;;;;;;;;5036989;28;20536;-78
2022/01/22 05:23:54;;;;;;;40.03;13.87;;;;;;;;;;5040172;28;20029;-79
2022/01/22 05:26:44;;;;;;;37.93;14.87;;;;;;;;;;5042757;28;20037;-78
2022/01/22 05:39:25;;;;;;;28.50;14.53;;;;;;;;;;5029028;28;20525;-79
2022/01/22 05:41:51;;;;;;;32.83;13.53;;;;;;;;;;5029545;28;20028;-78
2022/01/22 05:44:19;;;;;;;30.03;14.50;;;;;;;;;;5032618;28;20049;-79
2022/01/22 05:46:45;;;;;;;25.63;13.67;;;;;;;;;;5035446;28;20064;-78
2022/01/22 05:49:11;;;;;;;30.00;14.77;;;;;;;;;;5025949;28;20057;-78
2022/01/22 05:51:40;;;;;;;39.73;14.97;;;;;;;;;;5038287;28;20024;-79
2022/01/22 05:59:57;;;;;;;38.63;15.37;;;;;;;;;;5028453;28;20040;-77
2022/01/22 06:02:17;;;;;;;28.10;14.15;;;;;;;;;;5034187;28;20033;-77
2022/01/22 06:04:44;;;;;;;30.13;14.70;;;;;;;;;;5040588;28;20033;-79
2022/01/22 06:07:13;;;;;;;28.73;13.77;;;;;;;;;;5028851;28;20459;-78
2022/01/22 06:09:51;;;;;;;37.37;13.77;;;;;;;;;;5046742;28;20099;-77
2022/01/22 06:12:28;;;;;;;32.97;14.23;;;;;;;;;;5040251;28;20095;-79
2022/01/22 06:14:56;;;;;;;33.43;14.87;;;;;;;;;;5033777;28;20963;-78
2022/01/22 06:17:22;;;;;;;30.13;14.70;;;;;;;;;;5026883;28;20124;-78
2022/01/22 06:19:48;;;;;;;29.30;14.33;;;;;;;;;;5046129;28;20109;-79
2022/01/22 06:22:14;;;;;;;41.57;17.37;;;;;;;;;;5038803;28;20025;-77
2022/01/22 06:24:40;;;;;;;35.17;14.67;;;;;;;;;;5036841;28;20083;-78
2022/01/22 06:27:06;;;;;;;35.67;15.80;;;;;;;;;;5038330;28;20025;-78
2022/01/22 06:29:33;;;;;;;36.43;15.30;;;;;;;;;;5037023;28;20030;-79
2022/01/22 06:32:02;;;;;;;32.87;14.87;;;;;;;;;;5028082;28;20025;-79
2022/01/22 06:34:34;;;;;;;35.83;15.03;;;;;;;;;;5029719;28;20145;-78
2022/01/22 06:37:00;;;;;;;28.88;15.05;;;;;;;;;;5031110;28;20112;-79
2022/01/22 06:39:27;;;;;;;40.30;16.17;;;;;;;;;;5029566;28;20379;-77
2022/01/22 06:41:53;;;;;;;29.57;14.23;;;;;;;;;;5043329;28;20021;-78
2022/01/22 06:44:21;;;;;;;30.90;15.47;;;;;;;;;;5035661;28;20033;-78
2022/01/22 06:46:50;;;;;;;38.33;15.37;;;;;;;;;;5037244;28;20030;-78
2022/01/22 06:49:19;;;;;;;29.07;15.27;;;;;;;;;;5037352;28;20044;-79
2022/01/22 06:51:45;;;;;;;43.17;15.37;;;;;;;;;;5040558;28;20424;-78
2022/01/22 06:54:12;;;;;;;41.40;17.00;;;;;;;;;;5038054;28;20152;-78
2022/01/22 06:56:40;;;;;;;36.33;16.97;;;;;;;;;;5060289;28;20029;-79
2022/01/22 06:59:11;;;;;;;41.87;17.43;;;;;;;;;;5035214;28;20022;-78
2022/01/22 07:01:37;;;;;;;32.67;16.17;;;;;;;;;;5029190;28;20030;-77
2022/01/22 07:04:03;;;;;;;49.73;15.83;;;;;;;;;;5035451;28;20025;-78
2022/01/22 07:06:29;;;;;;;35.87;16.00;;;;;;;;;;5038157;28;20025;-79
2022/01/22 07:08:57;;;;;;;39.87;17.03;;;;;;;;;;5035260;28;20116;-78
2022/01/22 07:11:27;;;;;;;39.17;17.13;;;;;;;;;;5026581;28;20140;-79
2022/01/22 07:13:53;;;;;;;42.93;17.10;;;;;;;;;;5036430;28;20053;-78
2022/01/22 07:16:19;;;;;;;33.57;17.33;;;;;;;;;;5037893;28;20029;-78
2022/01/22 07:18:45;;;;;;;41.90;16.07;;;;;;;;;;5026128;28;20386;-79
2022/01/22 07:21:18;;;;;;;36.40;16.57;;;;;;;;;;5032666;28;20088;-77
2022/01/22 07:26:15;;;;;;;40.37;19.47;;;;;;;;;;5028341;28;20037;-79
2022/01/22 07:28:42;;;;;;;47.50;20.27;;;;;;;;;;5035681;28;20043;-79
2022/01/22 07:31:08;;;;;;;39.33;16.77;;;;;;;;;;5041533;28;20438;-79
2022/01/22 07:33:34;;;;;;;44.70;18.20;;;;;;;;;;5036208;28;20080;-79
2022/01/22 07:36:01;;;;;;;38.43;17.73;;;;;;;;;;5043703;28;21553;-79
2022/01/22 07:38:29;;;;;;;45.23;18.07;;;;;;;;;;5037830;28;20037;-79
2022/01/22 07:40:55;;;;;;;40.57;17.07;;;;;;;;;;5036555;28;20832;-78
2022/01/22 07:43:23;;;;;;;50.17;21.17;;;;;;;;;;5033684;28;20435;-79
2022/01/22 07:45:51;;;;;;;28.73;16.27;;;;;;;;;;5029798;28;20029;-78
2022/01/22 07:48:19;;;;;;;38.50;16.43;;;;;;;;;;5046117;28;20453;-77
2022/01/22 07:50:47;;;;;;;39.80;16.77;;;;;;;;;;5033403;28;20121;-78
2022/01/22 07:53:13;;;;;;;48.87;18.67;;;;;;;;;;5028987;28;20038;-78
2022/01/22 07:55:39;;;;;;;44.63;17.87;;;;;;;;;;5035918;28;20761;-79
2022/01/22 07:58:06;;;;;;;46.47;17.63;;;;;;;;;;5034915;28;20048;-77
2022/01/22 08:00:32;;;;;;;32.43;16.37;;;;;;;;;;5034939;28;20018;-77
2022/01/22 08:03:01;;;;;;;34.97;16.07;;;;;;;;;;5039893;28;21649;-78
2022/01/22 08:05:27;;;;;;;37.13;17.10;;;;;;;;;;5038802;28;20034;-79
2022/01/22 08:07:53;;;;;;;34.40;16.83;;;;;;;;;;5039813;28;20033;-77
2022/01/22 08:10:23;;;;;;;34.17;15.47;;;;;;;;;;5041031;28;20061;-79
2022/01/22 08:12:56;;;;;;;37.53;17.97;;;;;;;;;;5033632;28;20108;-78
2022/01/22 08:15:23;;;;;;;;;;;;;;;;;;5038039;28;20033;-78
2022/01/22 08:17:56;;;;;;;54.93;18.47;;;;;;;;;;5067010;28;20008;-79
2022/01/22 08:20:24;;;;;;;45.85;17.52;;;;;;;;;;5036767;28;20033;-78
2022/01/22 08:22:51;;;;;;;39.83;16.37;;;;;;;;;;5041623;28;20030;-79
2022/01/22 08:25:17;;;;;;;33.77;16.57;;;;;;;;;;5046153;28;20030;-78
2022/01/22 08:30:32;;;;;;;44.43;15.97;;;;;;;;;;5031451;28;20045;-76
2022/01/22 08:35:53;;;;;;;44.53;17.67;;;;;;;;;;5028702;28;20047;-79
2022/01/22 08:38:20;;;;;;;44.20;16.77;;;;;;;;;;5039354;28;20041;-79
2022/01/22 08:40:46;;;;;;;43.40;18.97;;;;;;;;;;5039026;28;20029;-79
2022/01/22 08:43:12;;;;;;;42.33;18.07;;;;;;;;;;5032926;28;20573;-79
2022/01/22 08:45:40;;;;;;;38.47;17.03;;;;;;;;;;5040445;28;20029;-79
2022/01/22 08:48:06;;;;;;;38.50;17.20;;;;;;;;;;5038181;28;20136;-79
2022/01/22 08:50:34;;;;;;;32.57;16.87;;;;;;;;;;5045649;28;20036;-80
2022/01/22 08:53:04;;;;;;;39.10;18.17;;;;;;;;;;5063915;28;20033;-80
2022/01/22 08:55:30;;;;;;;38.40;17.00;;;;;;;;;;5039956;28;20495;-80
2022/01/22 08:57:56;;;;;;;34.73;17.23;;;;;;;;;;5038004;28;20042;-78
2022/01/22 09:00:22;;;;;;;36.93;17.20;;;;;;;;;;5038208;28;20032;-79
2022/01/22 09:02:49;;;;;;;38.67;18.63;;;;;;;;;;5038457;28;20034;-79
2022/01/22 09:05:19;;;;;;;42.37;17.00;;;;;;;;;;5035255;28;20029;-80
2022/01/22 09:07:45;;;;;;;41.87;18.67;;;;;;;;;;5044028;28;20651;-80
2022/01/22 09:10:11;;;;;;;40.03;17.83;;;;;;;;;;5038233;28;20060;-79
2022/01/22 09:12:38;;;;;;;44.90;16.50;;;;;;;;;;5029500;28;20081;-80
2022/01/22 09:15:04;;;;;;;32.17;15.10;;;;;;;;;;5044572;28;20032;-79
2022/01/22 09:17:33;;;;;;;46.77;18.43;;;;;;;;;;5030380;28;20037;-78
2022/01/22 09:20:01;;;;;;;31.03;15.83;;;;;;;;;;5030078;28;20552;-78
2022/01/22 09:22:27;;;;;;;32.87;16.40;;;;;;;;;;5031087;28;20025;-79
2022/01/22 09:24:53;;;;;;;31.07;15.90;;;;;;;;;;5032300;28;20032;-79
2022/01/22 09:27:19;;;;;;;39.60;16.23;;;;;;;;;;5040128;28;20043;-78
2022/01/22 09:29:47;;;;;;;32.73;15.20;;;;;;;;;;5024064;28;20042;-78
2022/01/22 09:32:13;;;;;;;39.33;18.20;;;;;;;;;;5028890;28;20129;-79
2022/01/22 09:34:44;;;;;;;35.87;14.93;;;;;;;;;;5061881;28;20113;-77
2022/01/22 09:37:09;;;;;;;28.03;15.63;;;;;;;;;;5047003;28;20025;-77
2022/01/22 09:39:37;;;;;;;34.43;15.57;;;;;;;;;;5031187;28;20091;-78
2022/01/22 09:42:05;;;;;;;29.13;15.63;;;;;;;;;;5034551;28;20065;-79
2022/01/22 09:44:31;;;;;;;31.13;14.33;;;;;;;;;;5027229;28;20049;-77
2022/01/22 09:47:00;;;;;;;29.80;14.67;;;;;;;;;;5036848;28;20080;-78
2022/01/22 09:49:26;;;;;;;26.20;15.03;;;;;;;;;;5033460;28;20034;-80
2022/01/22 09:51:52;;;;;;;29.30;13.70;;;;;;;;;;5034787;28;20466;-80
2022/01/22 09:54:18;;;;;;;25.93;12.70;;;;;;;;;;5039071;28;20124;-80
2022/01/22 09:56:46;;;;;;;27.10;12.47;;;;;;;;;;5037472;28;20065;-78
2022/01/22 09:59:12;;;;;;;22.93;12.13;;;;;;;;;;5035096;28;20029;-79
2022/01/22 10:01:38;;;;;;;25.37;11.93;;;;;;;;;;5029385;28;20035;-78
2022/01/22 10:04:06;;;;;;;25.00;11.80;;;;;;;;;;5037146;28;20793;-78
2022/01/22 10:06:33;;;;;;;29.67;14.07;;;;;;;;;;5037296;28;20049;-79
2022/01/22 10:09:10;;;;;;;23.40;13.40;;;;;;;;;;5029915;28;20029;-77
2022/01/22 10:11:37;;;;;;;32.33;14.50;;;;;;;;;;5036442;28;20177;-79
2022/01/22 10:14:03;;;;;;;22.43;13.67;;;;;;;;;;5043726;28;20067;-79
2022/01/22 10:16:30;;;;;;;26.80;12.37;;;;;;;;;;5029161;28;20040;-76
2022/01/22 10:19:09;;;;;;;29.53;14.80;;;;;;;;;;5038692;28;20052;-79
2022/01/22 10:21:35;;;;;;;30.37;13.83;;;;;;;;;;5038088;28;20030;-78
2022/01/22 10:24:20;;;;;;;26.03;13.07;;;;;;;;;;5032449;28;20120;-79
2022/01/22 10:26:48;;;;;;;27.97;14.67;;;;;;;;;;5037292;28;20373;-80
2022/01/22 10:29:22;;;;;;;29.40;14.87;;;;;;;;;;5030156;28;20038;-79
2022/01/22 10:31:50;;;;;;;36.07;15.77;;;;;;;;;;5045694;28;20470;-78
2022/01/22 10:34:16;;;;;;;28.70;15.43;;;;;;;;;;5031443;28;20091;-79
2022/01/22 10:36:56;;;;;;;29.17;16.17;;;;;;;;;;5030069;28;20029;-80
2022/01/22 10:39:23;;;;;;;31.70;16.97;;;;;;;;;;5046625;28;20033;-80
2022/01/22 10:41:50;;;;;;;33.33;16.13;;;;;;;;;;5036028;28;20113;-79
2022/01/22 10:44:22;;;;;;;32.73;15.23;;;;;;;;;;5036288;28;20458;-79
2022/01/22 10:47:03;;;;;;;32.17;14.97;;;;;;;;;;5040173;28;20032;-79
2022/01/22 10:49:30;;;;;;;39.63;16.23;;;;;;;;;;5038075;28;20476;-78
2022/01/22 10:52:00;;;;;;;31.00;16.03;;;;;;;;;;5032514;28;20033;-79
2022/01/22 10:54:30;;;;;;;32.80;16.67;;;;;;;;;;5037802;28;20029;-79
2022/01/22 10:57:10;;;;;;;31.43;14.90;;;;;;;;;;5038960;28;20108;-78
2022/01/22 10:59:36;;;;;;;30.77;13.57;;;;;;;;;;5033451;28;20079;-77
2022/01/22 11:02:04;;;;;;;29.13;14.60;;;;;;;;;;5034883;28;20033;-79
2022/01/22 11:04:40;;;;;;;34.53;15.87;;;;;;;;;;5026924;28;20112;-79
2022/01/22 11:07:10;;;;;;;27.87;14.97;;;;;;;;;;5036690;28;20029;-79
2022/01/22 11:09:36;;;;;;;28.13;13.73;;;;;;;;;;5025734;28;20114;-79
2022/01/22 11:12:04;;;;;;;30.67;14.40;;;;;;;;;;5037799;28;20032;-80
2022/01/22 11:14:31;;;;;;;23.60;13.37;;;;;;;;;;5045599;28;20026;-79
2022/01/22 11:16:57;;;;;;;28.83;14.90;;;;;;;;;;5038023;28;20049;-79
2022/01/22 11:19:30;;;;;;;28.17;13.57;;;;;;;;;;5041950;28;20022;-78
2022/01/22 11:21:57;;;;;;;28.40;14.07;;;;;;;;;;5027833;28;20018;-79
2022/01/22 11:24:24;;;;;;;27.17;13.90;;;;;;;;;;5036658;28;20886;-80
2022/01/22 11:26:52;;;;;;;28.47;15.13;;;;;;;;;;5036563;28;20033;-79
2022/01/22 11:29:21;;;;;;;31.03;13.10;;;;;;;;;;5038752;28;20033;-79
2022/01/22 11:31:48;;;;;;;24.07;12.60;;;;;;;;;;5037686;28;20116;-79
2022/01/22 11:34:17;;;;;;;23.97;12.67;;;;;;;;;;5036694;28;20038;-79
2022/01/22 11:36:48;;;;;;;23.13;12.60;;;;;;;;;;5033738;28;20038;-79
2022/01/22 11:39:20;;;;;;;24.27;13.70;;;;;;;;;;5037179;28;20092;-78
2022/01/22 11:41:53;;;;;;;20.17;11.63;;;;;;;;;;5039544;28;20144;-80
2022/01/22 11:44:28;;;;;;;17.63;9.60;;;;;;;;;;5040011;28;20030;-79
2022/01/22 11:47:07;;;;;;;20.27;10.27;;;;;;;;;;5039868;28;20116;-79
2022/01/22 11:49:34;;;;;;;16.10;8.97;;;;;;;;;;5063271;28;20079;-78
2022/01/22 11:52:11;;;;;;;22.70;10.10;;;;;;;;;;5039677;28;20022;-75
2022/01/22 11:54:50;;;;;;;20.90;9.53;;;;;;;;;;5072705;28;20108;-79
2022/01/22 11:57:16;;;;;;;16.73;10.13;;;;;;;;;;5040264;28;20033;-78
2022/01/22 11:59:46;;;;;;;13.37;8.90;;;;;;;;;;5039615;28;20760;-79
2022/01/22 12:02:15;;;;;;;14.80;8.53;;;;;;;;;;5032715;28;20113;-79
2022/01/22 12:04:41;;;;;;;17.60;9.70;;;;;;;;;;5039856;28;20636;-79
2022/01/22 12:07:07;;;;;;;16.97;9.20;;;;;;;;;;5033192;28;20025;-79
2022/01/22 12:10:15;;;;;;;21.27;10.10;;;;;;;;;;5039720;28;20030;-80
2022/01/22 12:15:37;;;;;;;25.20;11.47;;;;;;;;;;5031080;28;20187;-79
2022/01/22 12:18:04;;;;;;;18.73;10.47;;;;;;;;;;5046214;28;20076;-79
2022/01/22 12:23:04;;;;;;;28.58;12.88;;;;;;;;;;5033983;28;20437;-78
2022/01/22 12:25:30;;;;;;;25.23;13.63;;;;;;;;;;5041179;28;20464;-79
2022/01/22 12:27:57;;;;;;;24.50;12.83;;;;;;;;;;5042540;28;20025;-78
2022/01/22 12:30:36;;;;;;;27.97;15.07;;;;;;;;;;5040349;28;20112;-75
2022/01/22 12:33:02;;;;;;;31.23;13.17;;;;;;;;;;5041619;28;20113;-79
2022/01/22 12:35:34;;;;;;;26.27;14.53;;;;;;;;;;5033929;28;20462;-79
2022/01/22 12:41:00;;;;;;;;;;;;;;;;;;5032683;28;20026;-79
2022/01/22 12:43:32;;;;;;;26.55;13.25;;;;;;;;;;5061043;28;19905;-79
2022/01/22 12:45:59;;;;;;;22.63;11.50;;;;;;;;;;5048599;28;20036;-79
2022/01/22 12:48:36;;;;;;;25.80;10.83;;;;;;;;;;5031240;28;20025;-79
2022/01/22 12:51:03;;;;;;;16.77;9.70;;;;;;;;;;5062653;28;20453;-78
2022/01/22 12:53:29;;;;;;;14.20;7.70;;;;;;;;;;5028150;28;20048;-77
2022/01/22 12:58:37;;;;;;;14.83;8.00;;;;;;;;;;5031654;28;20179;-79
2022/01/22 13:01:09;;;;;;;15.23;7.50;;;;;;;;;;5026896;28;20029;-78
2022/01/22 13:03:42;;;;;;;14.25;7.15;;;;;;;;;;5031780;28;20072;-79
2022/01/22 13:06:12;;;;;;;16.50;8.53;;;;;;;;;;5040356;28;20091;-79
2022/01/22 13:08:38;;;;;;;21.90;8.83;;;;;;;;;;5036389;28;20033;-79
2022/01/22 13:11:07;;;;;;;21.10;10.80;;;;;;;;;;5029345;28;20029;-79
2022/01/22 13:13:34;;;;;;;18.83;9.20;;;;;;;;;;5044054;28;20330;-78
2022/01/22 13:16:03;;;;;;;25.13;10.43;;;;;;;;;;5039536;28;20108;-77
2022/01/22 13:18:39;;;;;;;18.77;11.10;;;;;;;;;;5040758;28;20118;-78
2022/01/22 13:21:07;;;;;;;22.97;11.17;;;;;;;;;;5039632;28;21722;-80
2022/01/22 13:23:36;;;;;;;23.50;10.27;;;;;;;;;;5038518;28;20049;-77
2022/01/22 13:26:02;;;;;;;21.97;10.80;;;;;;;;;;5031550;28;20025;-79
2022/01/22 13:28:31;;;;;;;21.43;11.50;;;;;;;;;;5039831;28;20424;-79
2022/01/22 13:31:02;;;;;;;22.80;11.97;;;;;;;;;;5031744;28;20030;-79
2022/01/22 13:36:24;;;;;;;27.70;12.00;;;;;;;;;;5030524;28;20441;-78
2022/01/22 13:49:52;;;;;;;19.70;11.73;;;;;;;;;;5029064;28;20094;-78
2022/01/22 13:52:19;;;;;;;22.40;11.17;;;;;;;;;;5038720;28;20040;-78
2022/01/22 13:54:46;;;;;;;16.73;10.43;;;;;;;;;;5038373;28;20026;-80
2022/01/22 13:57:16;;;;;;;24.57;12.13;;;;;;;;;;5036541;28;20038;-78
2022/01/22 13:59:43;;;;;;;22.57;12.33;;;;;;;;;;5046736;28;20117;-78
2022/01/22 14:04:56;;;;;;;25.13;12.43;;;;;;;;;;5031169;28;21286;-79
2022/01/22 14:07:27;;;;;;;21.73;11.43;;;;;;;;;;5039242;28;21710;-80
2022/01/22 14:10:07;;;;;;;20.63;12.03;;;;;;;;;;5039312;28;20048;-79
2022/01/22 14:12:41;;;;;;;23.60;12.63;;;;;;;;;;5038068;28;20043;-79
2022/01/22 14:15:13;;;;;;;24.20;13.40;;;;;;;;;;5026883;28;20039;-79
2022/01/22 14:18:13;;;;;;;28.90;14.35;;;;;;;;;;5029860;28;20045;-78
2022/01/22 14:20:39;;;;;;;32.63;14.63;;;;;;;;;;5029091;28;20039;-79
2022/01/22 14:23:05;;;;;;;31.37;15.03;;;;;;;;;;5043867;28;20108;-79
2022/01/22 14:25:36;;;;;;;23.83;12.80;;;;;;;;;;5037359;28;20060;-80
2022/01/22 14:28:03;;;;;;;30.87;16.23;;;;;;;;;;5039599;28;20042;-79
2022/01/22 14:30:39;;;;;;;33.80;15.57;;;;;;;;;;5038102;28;21615;-81
2022/01/22 14:33:05;;;;;;;27.70;15.77;;;;;;;;;;5030157;28;20393;-78
2022/01/22 14:35:32;;;;;;;26.63;16.13;;;;;;;;;;5038267;28;20029;-79
2022/01/22 14:38:18;;;;;;;35.47;16.87;;;;;;;;;;5027171;28;20034;-80
2022/01/22 14:44:00;;;;;;;31.37;16.23;;;;;;;;;;5027452;28;20040;-78
2022/01/22 14:46:31;;;;;;;37.87;18.77;;;;;;;;;;5035263;28;20030;-78
2022/01/22 14:48:58;;;;;;;54.33;25.03;;;;;;;;;;5036539;28;20462;-79
2022/01/22 14:51:27;;;;;;;44.87;23.60;;;;;;;;;;5030948;28;20120;-79
2022/01/22 14:53:53;;;;;;;37.23;20.63;;;;;;;;;;5027721;28;20061;-79
2022/01/22 14:56:23;;;;;;;43.47;23.50;;;;;;;;;;5034383;28;21678;-79
2022/01/22 14:58:49;;;;;;;45.60;26.27;;;;;;;;;;5027551;28;20156;-79
2022/01/22 15:01:15;;;;;;;34.33;17.23;;;;;;;;;;5028181;28;20909;-79
2022/01/22 15:03:41;;;;;;;34.10;18.47;;;;;;;;;;5036937;28;20025;-79
2022/01/22 15:06:09;;;;;;;30.90;18.93;;;;;;;;;;5035490;28;20035;-79
2022/01/22 15:08:35;;;;;;;43.90;19.60;;;;;;;;;;5037948;28;20125;-79
2022/01/22 15:11:03;;;;;;;29.17;17.83;;;;;;;;;;5033889;28;20104;-79
2022/01/22 15:13:33;;;;;;;39.37;23.20;;;;;;;;;;5033957;28;20129;-79
2022/01/22 15:16:08;;;;;;;34.93;17.87;;;;;;;;;;5036096;28;20533;-78
2022/01/22 15:19:00;;;;;;;36.87;17.97;;;;;;;;;;5037411;28;20087;-78
2022/01/22 15:21:23;;;;;;;35.73;18.03;;;;;;;;;;5027423;28;20160;-79
2022/01/22 15:23:51;;;;;;;36.83;17.87;;;;;;;;;;5035668;28;20247;-78
2022/01/22 15:26:19;;;;;;;32.03;16.00;;;;;;;;;;5035433;28;20057;-77
2022/01/22 15:28:48;;;;;;;37.20;17.93;;;;;;;;;;5035742;28;20048;-78
2022/01/22 15:32:31;;;;;;;30.57;17.63;;;;;;;;;;5027520;28;20394;-79
2022/01/22 15:34:26;;;;;;;33.23;16.93;;;;;;;;;;5032530;28;20041;-80
2022/01/22 15:36:53;;;;;;;36.07;16.73;;;;;;;;;;5037014;28;20112;-78
2022/01/22 15:39:20;;;;;;;31.03;15.23;;;;;;;;;;5028938;28;20081;-78
2022/01/22 15:41:46;;;;;;;40.67;17.57;;;;;;;;;;5024557;28;20028;-79
2022/01/22 15:44:12;;;;;;;33.23;17.00;;;;;;;;;;5026602;28;20041;-78
2022/01/22 15:46:41;;;;;;;29.33;16.33;;;;;;;;;;5030085;28;20018;-79
2022/01/22 15:49:07;;;;;;;35.63;16.23;;;;;;;;;;5029422;28;20030;-77
2022/01/22 15:51:35;;;;;;;34.67;17.70;;;;;;;;;;5036531;28;20029;-79
2022/01/22 15:54:01;;;;;;;34.73;15.30;;;;;;;;;;5061513;28;20204;-78
2022/01/22 15:56:27;;;;;;;27.03;13.83;;;;;;;;;;5027960;28;20928;-77
2022/01/22 15:58:53;;;;;;;28.47;16.73;;;;;;;;;;5028375;28;20061;-79
2022/01/22 16:01:19;;;;;;;34.87;20.27;;;;;;;;;;5034395;28;20187;-79
2022/01/22 16:03:47;;;;;;;29.30;15.33;;;;;;;;;;5029012;28;20541;-79
2022/01/22 16:06:19;;;;;;;33.83;15.57;;;;;;;;;;5043893;28;20029;-78
2022/01/22 16:08:48;;;;;;;32.70;15.45;;;;;;;;;;5031068;28;20434;-79
2022/01/22 16:11:14;;;;;;;39.20;16.10;;;;;;;;;;5034975;28;20053;-78
2022/01/22 16:13:41;;;;;;;34.50;16.17;;;;;;;;;;5037528;28;20457;-79
2022/01/22 16:16:07;;;;;;;31.43;16.93;;;;;;;;;;5034643;28;20083;-78
2022/01/22 16:18:34;;;;;;;35.43;19.67;;;;;;;;;;5029039;28;20037;-78
2022/01/22 16:21:00;;;;;;;36.33;15.77;;;;;;;;;;5026211;28;20048;-76
2022/01/22 16:23:27;;;;;;;30.40;17.77;;;;;;;;;;5030675;28;20029;-79
2022/01/22 16:25:54;;;;;;;33.97;16.23;;;;;;;;;;5040210;28;20052;-79
2022/01/22 16:28:21;;;;;;;30.57;15.87;;;;;;;;;;5037887;28;20659;-79
2022/01/22 16:30:47;;;;;;;32.80;16.47;;;;;;;;;;5034780;28;20043;-78
2022/01/22 16:33:14;;;;;;;29.93;15.47;;;;;;;;;;5039951;28;20096;-79
2022/01/22 16:35:41;;;;;;;31.87;16.13;;;;;;;;;;5038329;28;20167;-79
2022/01/22 16:38:07;;;;;;;34.37;18.53;;;;;;;;;;5033589;28;20054;-79